sensor_id;sensor_type;location;lat;lon;timestamp;P1;durP1;ratioP1;P2;durP2;ratioP2
69917;SDS011;57203;42.672;23.334;2022-11-14T00:00:23;52.9;;;25.4;;
69917;SDS011;57203;42.672;23.334;2022-11-14T00:01:23;46.4;;;24.3;;
69917;SDS011;57203;42.672;23.334;2022-11-14T00:02:23;46.3;;;26.6;;
69917;SDS011;57203;42.672;23.334;2022-11-14T00:03:23;53.1;;;27.1;;
69917;SDS011;57203;42.672;23.334;2022-11-14T00:04:24;53.1;;;25.4;;
69917;SDS011;57203;42.672;23.334;2022-11-14T00:05:24;50.0;;;22.8;;
69917;SDS011;57203;42.672;23.334;2022-11-14T00:06:24;44.9;;;21.8;;
69917;SDS011;57203;42.672;23.334;2022-11-14T00:07:24;43.9;;;22.7;;
69917;SDS011;57203;42.672;23.334;2022-11-14T00:08:24;51.0;;;21.7;;
69917;SDS011;57203;42.672;23.334;2022-11-14T00:09:25;41.3;;;21.1;;
69917;SDS011;57203;42.672;23.334;2022-11-14T00:10:25;37.7;;;18.8;;
69917;SDS011;57203;42.672;23.334;2022-11-14T00:11:25;37.7;;;21.3;;
69917;SDS011;57203;42.672;23.334;2022-11-14T00:12:25;38.7;;;19.5;;
69917;SDS011;57203;42.672;23.334;2022-11-14T00:13:25;36.6;;;22.2;;
69917;SDS011;57203;42.672;23.334;2022-11-14T00:14:25;36.1;;;18.3;;
69917;SDS011;57203;42.672;23.334;2022-11-14T00:15:25;36.1;;;21.8;;
69917;SDS011;57203;42.672;23.334;2022-11-14T00:16:26;42.9;;;17.3;;
69917;SDS011;57203;42.672;23.334;2022-11-14T00:17:26;34.1;;;18.6;;
69917;SDS011;57203;42.672;23.334;2022-11-14T00:18:26;35.2;;;19.1;;
69917;SDS011;57203;42.672;23.334;2022-11-14T00:19:26;37.0;;;17.2;;
69917;SDS011;57203;42.672;23.334;2022-11-14T00:20:26;32.6;;;16.5;;
69917;SDS011;57203;42.672;23.334;2022-11-14T00:22:27;29.6;;;18.0;;
69917;SDS011;57203;42.672;23.334;2022-11-14T00:23:27;29.8;;;15.2;;
69917;SDS011;57203;42.672;23.334;2022-11-14T00:24:27;29.8;;;16.0;;
69917;SDS011;57203;42.672;23.334;2022-11-14T00:26:27;33.2;;;15.5;;
69917;SDS011;57203;42.672;23.334;2022-11-14T00:27:27;32.6;;;16.7;;
69917;SDS011;57203;42.672;23.334;2022-11-14T00:28:28;32.6;;;18.1;;
69917;SDS011;57203;42.672;23.334;2022-11-14T00:29:28;32.4;;;17.7;;
69917;SDS011;57203;42.672;23.334;2022-11-14T00:30:28;32.4;;;15.0;;
69917;SDS011;57203;42.672;23.334;2022-11-14T00:31:28;28.7;;;17.5;;
69917;SDS011;57203;42.672;23.334;2022-11-14T00:32:29;34.6;;;17.9;;
69917;SDS011;57203;42.672;23.334;2022-11-14T00:33:28;34.4;;;19.8;;
69917;SDS011;57203;42.672;23.334;2022-11-14T00:34:29;39.7;;;16.7;;
69917;SDS011;57203;42.672;23.334;2022-11-14T00:35:29;33.2;;;21.3;;
69917;SDS011;57203;42.672;23.334;2022-11-14T00:36:29;39.8;;;18.7;;
69917;SDS011;57203;42.672;23.334;2022-11-14T00:37:29;33.8;;;17.6;;
69917;SDS011;57203;42.672;23.334;2022-11-14T00:38:29;31.6;;;17.1;;
69917;SDS011;57203;42.672;23.334;2022-11-14T00:39:29;33.5;;;17.6;;
69917;SDS011;57203;42.672;23.334;2022-11-14T00:40:30;33.5;;;18.0;;
69917;SDS011;57203;42.672;23.334;2022-11-14T00:41:30;33.5;;;17.5;;
69917;SDS011;57203;42.672;23.334;2022-11-14T00:42:30;35.1;;;18.1;;
69917;SDS011;57203;42.672;23.334;2022-11-14T00:43:30;34.4;;;17.1;;
69917;SDS011;57203;42.672;23.334;2022-11-14T00:44:30;34.6;;;17.6;;
69917;SDS011;57203;42.672;23.334;2022-11-14T00:45:30;34.6;;;17.2;;
69917;SDS011;57203;42.672;23.334;2022-11-14T00:46:31;33.0;;;17.6;;
69917;SDS011;57203;42.672;23.334;2022-11-14T00:47:31;32.4;;;18.1;;
69917;SDS011;57203;42.672;23.334;2022-11-14T00:48:31;32.4;;;18.5;;
69917;SDS011;57203;42.672;23.334;2022-11-14T00:49:31;35.2;;;17.1;;
69917;SDS011;57203;42.672;23.334;2022-11-14T00:50:31;34.1;;;17.2;;
69917;SDS011;57203;42.672;23.334;2022-11-14T00:51:31;36.6;;;16.5;;
69917;SDS011;57203;42.672;23.334;2022-11-14T00:52:32;30.8;;;15.6;;
69917;SDS011;57203;42.672;23.334;2022-11-14T00:53:32;30.4;;;16.4;;
69917;SDS011;57203;42.672;23.334;2022-11-14T00:54:32;35.6;;;16.8;;
69917;SDS011;57203;42.672;23.334;2022-11-14T00:55:32;31.7;;;16.3;;
69917;SDS011;57203;42.672;23.334;2022-11-14T00:56:32;30.8;;;16.0;;
69917;SDS011;57203;42.672;23.334;2022-11-14T00:57:32;28.7;;;16.2;;
69917;SDS011;57203;42.672;23.334;2022-11-14T00:58:33;31.8;;;16.4;;
69917;SDS011;57203;42.672;23.334;2022-11-14T00:59:33;29.0;;;15.2;;
69917;SDS011;57203;42.672;23.334;2022-11-14T01:00:35;27.5;;;14.1;;
69917;SDS011;57203;42.672;23.334;2022-11-14T01:01:33;26.5;;;14.8;;
69917;SDS011;57203;42.672;23.334;2022-11-14T01:02:33;28.9;;;15.7;;
69917;SDS011;57203;42.672;23.334;2022-11-14T01:03:33;31.2;;;14.9;;
69917;SDS011;57203;42.672;23.334;2022-11-14T01:04:33;26.8;;;14.7;;
69917;SDS011;57203;42.672;23.334;2022-11-14T01:05:38;26.8;;;15.4;;
69917;SDS011;57203;42.672;23.334;2022-11-14T01:06:34;33.7;;;15.3;;
69917;SDS011;57203;42.672;23.334;2022-11-14T01:07:34;26.9;;;15.7;;
69917;SDS011;57203;42.672;23.334;2022-11-14T01:08:34;28.8;;;15.6;;
69917;SDS011;57203;42.672;23.334;2022-11-14T01:09:34;28.8;;;15.4;;
69917;SDS011;57203;42.672;23.334;2022-11-14T01:11:35;31.2;;;16.6;;
69917;SDS011;57203;42.672;23.334;2022-11-14T01:12:35;30.9;;;17.0;;
69917;SDS011;57203;42.672;23.334;2022-11-14T01:13:35;32.3;;;14.2;;
69917;SDS011;57203;42.672;23.334;2022-11-14T01:14:35;26.7;;;14.9;;
69917;SDS011;57203;42.672;23.334;2022-11-14T01:15:37;30.3;;;14.5;;
69917;SDS011;57203;42.672;23.334;2022-11-14T01:16:36;28.5;;;15.0;;
69917;SDS011;57203;42.672;23.334;2022-11-14T01:18:36;26.8;;;15.9;;
69917;SDS011;57203;42.672;23.334;2022-11-14T01:19:36;29.2;;;15.4;;
69917;SDS011;57203;42.672;23.334;2022-11-14T01:20:37;28.1;;;14.0;;
69917;SDS011;57203;42.672;23.334;2022-11-14T01:21:36;28.1;;;15.3;;
69917;SDS011;57203;42.672;23.334;2022-11-14T01:22:37;25.2;;;14.4;;
69917;SDS011;57203;42.672;23.334;2022-11-14T01:23:37;25.2;;;15.5;;
69917;SDS011;57203;42.672;23.334;2022-11-14T01:24:37;29.3;;;13.8;;
69917;SDS011;57203;42.672;23.334;2022-11-14T01:25:38;25.4;;;14.7;;
69917;SDS011;57203;42.672;23.334;2022-11-14T01:26:37;28.5;;;14.5;;
69917;SDS011;57203;42.672;23.334;2022-11-14T01:27:37;28.9;;;14.3;;
69917;SDS011;57203;42.672;23.334;2022-11-14T01:29:38;27.7;;;12.4;;
69917;SDS011;57203;42.672;23.334;2022-11-14T01:30:38;23.6;;;15.2;;
69917;SDS011;57203;42.672;23.334;2022-11-14T01:31:38;28.0;;;15.5;;
69917;SDS011;57203;42.672;23.334;2022-11-14T01:32:38;27.1;;;13.4;;
69917;SDS011;57203;42.672;23.334;2022-11-14T01:33:38;27.1;;;14.0;;
69917;SDS011;57203;42.672;23.334;2022-11-14T01:34:39;26.8;;;13.4;;
69917;SDS011;57203;42.672;23.334;2022-11-14T01:35:39;26.0;;;13.5;;
69917;SDS011;57203;42.672;23.334;2022-11-14T01:36:39;25.2;;;13.0;;
69917;SDS011;57203;42.672;23.334;2022-11-14T01:37:39;25.2;;;13.7;;
69917;SDS011;57203;42.672;23.334;2022-11-14T01:38:39;24.6;;;13.9;;
69917;SDS011;57203;42.672;23.334;2022-11-14T01:39:39;25.7;;;13.6;;
69917;SDS011;57203;42.672;23.334;2022-11-14T01:40:40;25.7;;;13.8;;
69917;SDS011;57203;42.672;23.334;2022-11-14T01:41:40;24.9;;;13.7;;
69917;SDS011;57203;42.672;23.334;2022-11-14T01:42:40;24.9;;;13.1;;
69917;SDS011;57203;42.672;23.334;2022-11-14T01:43:41;25.4;;;13.5;;
69917;SDS011;57203;42.672;23.334;2022-11-14T01:44:43;25.4;;;13.9;;
69917;SDS011;57203;42.672;23.334;2022-11-14T01:45:46;25.9;;;16.4;;
69917;SDS011;57203;42.672;23.334;2022-11-14T01:46:41;30.6;;;15.5;;
69917;SDS011;57203;42.672;23.334;2022-11-14T01:47:41;28.6;;;15.2;;
69917;SDS011;57203;42.672;23.334;2022-11-14T01:48:43;27.7;;;16.8;;
69917;SDS011;57203;42.672;23.334;2022-11-14T01:49:41;31.4;;;18.5;;
69917;SDS011;57203;42.672;23.334;2022-11-14T01:50:41;34.7;;;21.7;;
69917;SDS011;57203;42.672;23.334;2022-11-14T01:51:42;42.5;;;22.3;;
69917;SDS011;57203;42.672;23.334;2022-11-14T01:52:42;44.0;;;23.4;;
69917;SDS011;57203;42.672;23.334;2022-11-14T01:53:42;47.7;;;29.5;;
69917;SDS011;57203;42.672;23.334;2022-11-14T01:54:43;59.0;;;29.0;;
69917;SDS011;57203;42.672;23.334;2022-11-14T01:55:42;59.0;;;28.1;;
69917;SDS011;57203;42.672;23.334;2022-11-14T01:56:43;53.0;;;28.6;;
69917;SDS011;57203;42.672;23.334;2022-11-14T01:57:43;59.7;;;28.7;;
69917;SDS011;57203;42.672;23.334;2022-11-14T01:58:44;59.7;;;30.5;;
69917;SDS011;57203;42.672;23.334;2022-11-14T01:59:44;62.3;;;32.2;;
69917;SDS011;57203;42.672;23.334;2022-11-14T02:00:43;65.0;;;31.8;;
69917;SDS011;57203;42.672;23.334;2022-11-14T02:01:44;72.6;;;33.0;;
69917;SDS011;57203;42.672;23.334;2022-11-14T02:02:43;72.6;;;32.4;;
69917;SDS011;57203;42.672;23.334;2022-11-14T02:03:44;64.2;;;31.0;;
69917;SDS011;57203;42.672;23.334;2022-11-14T02:04:44;71.5;;;32.7;;
69917;SDS011;57203;42.672;23.334;2022-11-14T02:05:44;71.5;;;32.4;;
69917;SDS011;57203;42.672;23.334;2022-11-14T02:06:44;72.8;;;31.9;;
69917;SDS011;57203;42.672;23.334;2022-11-14T02:07:44;71.0;;;32.4;;
69917;SDS011;57203;42.672;23.334;2022-11-14T02:08:44;67.4;;;31.3;;
69917;SDS011;57203;42.672;23.334;2022-11-14T02:09:45;67.4;;;33.4;;
69917;SDS011;57203;42.672;23.334;2022-11-14T02:10:45;69.9;;;30.9;;
69917;SDS011;57203;42.672;23.334;2022-11-14T02:11:45;66.9;;;30.6;;
69917;SDS011;57203;42.672;23.334;2022-11-14T02:12:45;66.9;;;31.0;;
69917;SDS011;57203;42.672;23.334;2022-11-14T02:13:45;62.0;;;29.9;;
69917;SDS011;57203;42.672;23.334;2022-11-14T02:14:46;62.0;;;30.4;;
69917;SDS011;57203;42.672;23.334;2022-11-14T02:15:45;64.3;;;31.0;;
69917;SDS011;57203;42.672;23.334;2022-11-14T02:16:46;64.5;;;31.4;;
69917;SDS011;57203;42.672;23.334;2022-11-14T02:17:46;67.1;;;31.0;;
69917;SDS011;57203;42.672;23.334;2022-11-14T02:18:46;70.3;;;30.5;;
69917;SDS011;57203;42.672;23.334;2022-11-14T02:19:47;66.3;;;32.0;;
69917;SDS011;57203;42.672;23.334;2022-11-14T02:20:46;64.7;;;30.9;;
69917;SDS011;57203;42.672;23.334;2022-11-14T02:21:46;63.5;;;30.7;;
69917;SDS011;57203;42.672;23.334;2022-11-14T02:22:47;66.6;;;30.1;;
69917;SDS011;57203;42.672;23.334;2022-11-14T02:23:47;60.4;;;32.0;;
69917;SDS011;57203;42.672;23.334;2022-11-14T02:24:47;66.8;;;30.8;;
69917;SDS011;57203;42.672;23.334;2022-11-14T02:25:47;68.1;;;30.3;;
69917;SDS011;57203;42.672;23.334;2022-11-14T02:26:47;65.2;;;31.1;;
69917;SDS011;57203;42.672;23.334;2022-11-14T02:27:47;65.2;;;29.5;;
69917;SDS011;57203;42.672;23.334;2022-11-14T02:28:48;57.8;;;29.2;;
69917;SDS011;57203;42.672;23.334;2022-11-14T02:29:48;64.1;;;29.5;;
69917;SDS011;57203;42.672;23.334;2022-11-14T02:30:48;65.8;;;31.2;;
69917;SDS011;57203;42.672;23.334;2022-11-14T02:31:48;61.9;;;29.1;;
69917;SDS011;57203;42.672;23.334;2022-11-14T02:32:48;57.2;;;29.7;;
69917;SDS011;57203;42.672;23.334;2022-11-14T02:33:48;61.4;;;30.5;;
69917;SDS011;57203;42.672;23.334;2022-11-14T02:34:48;66.0;;;30.0;;
69917;SDS011;57203;42.672;23.334;2022-11-14T02:35:49;59.4;;;29.1;;
69917;SDS011;57203;42.672;23.334;2022-11-14T02:36:49;65.0;;;29.9;;
69917;SDS011;57203;42.672;23.334;2022-11-14T02:37:49;65.0;;;26.1;;
69917;SDS011;57203;42.672;23.334;2022-11-14T02:38:49;55.3;;;25.9;;
69917;SDS011;57203;42.672;23.334;2022-11-14T02:39:49;55.3;;;26.1;;
69917;SDS011;57203;42.672;23.334;2022-11-14T02:40:49;55.3;;;27.2;;
69917;SDS011;57203;42.672;23.334;2022-11-14T02:41:50;55.3;;;27.0;;
69917;SDS011;57203;42.672;23.334;2022-11-14T02:42:50;59.2;;;26.8;;
69917;SDS011;57203;42.672;23.334;2022-11-14T02:43:50;52.4;;;26.3;;
69917;SDS011;57203;42.672;23.334;2022-11-14T02:44:50;54.9;;;27.4;;
69917;SDS011;57203;42.672;23.334;2022-11-14T02:45:50;56.6;;;26.5;;
69917;SDS011;57203;42.672;23.334;2022-11-14T02:46:51;53.5;;;25.2;;
69917;SDS011;57203;42.672;23.334;2022-11-14T02:47:50;54.8;;;26.1;;
69917;SDS011;57203;42.672;23.334;2022-11-14T02:48:51;51.4;;;24.1;;
69917;SDS011;57203;42.672;23.334;2022-11-14T02:49:51;51.4;;;25.2;;
69917;SDS011;57203;42.672;23.334;2022-11-14T02:50:51;54.1;;;25.3;;
69917;SDS011;57203;42.672;23.334;2022-11-14T02:51:51;54.1;;;27.3;;
69917;SDS011;57203;42.672;23.334;2022-11-14T02:52:51;59.1;;;25.5;;
69917;SDS011;57203;42.672;23.334;2022-11-14T02:53:52;51.6;;;24.3;;
69917;SDS011;57203;42.672;23.334;2022-11-14T02:54:52;49.6;;;26.2;;
69917;SDS011;57203;42.672;23.334;2022-11-14T02:55:52;51.9;;;24.0;;
69917;SDS011;57203;42.672;23.334;2022-11-14T02:56:52;51.9;;;24.4;;
69917;SDS011;57203;42.672;23.334;2022-11-14T02:57:52;51.8;;;26.2;;
69917;SDS011;57203;42.672;23.334;2022-11-14T02:58:52;57.1;;;25.1;;
69917;SDS011;57203;42.672;23.334;2022-11-14T02:59:53;49.4;;;22.1;;
69917;SDS011;57203;42.672;23.334;2022-11-14T03:00:53;45.6;;;22.7;;
69917;SDS011;57203;42.672;23.334;2022-11-14T03:01:53;52.4;;;24.0;;
69917;SDS011;57203;42.672;23.334;2022-11-14T03:02:53;48.0;;;22.7;;
69917;SDS011;57203;42.672;23.334;2022-11-14T03:03:53;43.1;;;23.4;;
69917;SDS011;57203;42.672;23.334;2022-11-14T03:04:54;49.8;;;25.1;;
69917;SDS011;57203;42.672;23.334;2022-11-14T03:05:57;49.8;;;25.6;;
69917;SDS011;57203;42.672;23.334;2022-11-14T03:06:54;51.9;;;24.1;;
69917;SDS011;57203;42.672;23.334;2022-11-14T03:07:54;48.3;;;24.3;;
69917;SDS011;57203;42.672;23.334;2022-11-14T03:08:54;48.3;;;23.5;;
69917;SDS011;57203;42.672;23.334;2022-11-14T03:09:54;48.2;;;23.8;;
69917;SDS011;57203;42.672;23.334;2022-11-14T03:10:55;48.8;;;22.7;;
69917;SDS011;57203;42.672;23.334;2022-11-14T03:11:55;48.9;;;23.7;;
69917;SDS011;57203;42.672;23.334;2022-11-14T03:12:55;50.4;;;23.0;;
69917;SDS011;57203;42.672;23.334;2022-11-14T03:13:55;49.5;;;23.7;;
69917;SDS011;57203;42.672;23.334;2022-11-14T03:14:55;47.1;;;23.9;;
69917;SDS011;57203;42.672;23.334;2022-11-14T03:15:55;48.9;;;22.3;;
69917;SDS011;57203;42.672;23.334;2022-11-14T03:16:55;47.3;;;22.5;;
69917;SDS011;57203;42.672;23.334;2022-11-14T03:17:56;42.6;;;22.4;;
69917;SDS011;57203;42.672;23.334;2022-11-14T03:18:56;42.6;;;22.5;;
69917;SDS011;57203;42.672;23.334;2022-11-14T03:20:56;48.2;;;20.3;;
69917;SDS011;57203;42.672;23.334;2022-11-14T03:21:56;45.3;;;21.2;;
69917;SDS011;57203;42.672;23.334;2022-11-14T03:23:57;44.0;;;21.3;;
69917;SDS011;57203;42.672;23.334;2022-11-14T03:24:57;43.5;;;21.4;;
69917;SDS011;57203;42.672;23.334;2022-11-14T03:25:58;42.6;;;23.3;;
69917;SDS011;57203;42.672;23.334;2022-11-14T03:26:57;46.5;;;24.2;;
69917;SDS011;57203;42.672;23.334;2022-11-14T03:27:57;49.2;;;23.7;;
69917;SDS011;57203;42.672;23.334;2022-11-14T03:28:57;52.1;;;22.4;;
69917;SDS011;57203;42.672;23.334;2022-11-14T03:29:58;48.7;;;22.9;;
69917;SDS011;57203;42.672;23.334;2022-11-14T03:30:58;44.2;;;22.8;;
69917;SDS011;57203;42.672;23.334;2022-11-14T03:31:58;47.3;;;21.5;;
69917;SDS011;57203;42.672;23.334;2022-11-14T03:32:58;45.9;;;21.7;;
69917;SDS011;57203;42.672;23.334;2022-11-14T03:33:58;48.8;;;22.6;;
69917;SDS011;57203;42.672;23.334;2022-11-14T03:34:58;46.5;;;22.2;;
69917;SDS011;57203;42.672;23.334;2022-11-14T03:35:59;46.5;;;23.2;;
69917;SDS011;57203;42.672;23.334;2022-11-14T03:36:59;48.2;;;22.3;;
69917;SDS011;57203;42.672;23.334;2022-11-14T03:37:59;48.4;;;22.5;;
69917;SDS011;57203;42.672;23.334;2022-11-14T03:38:59;48.4;;;18.5;;
69917;SDS011;57203;42.672;23.334;2022-11-14T03:39:59;40.4;;;21.6;;
69917;SDS011;57203;42.672;23.334;2022-11-14T03:41:00;51.3;;;21.9;;
69917;SDS011;57203;42.672;23.334;2022-11-14T03:43:00;49.3;;;24.3;;
69917;SDS011;57203;42.672;23.334;2022-11-14T03:44:00;65.1;;;23.1;;
69917;SDS011;57203;42.672;23.334;2022-11-14T03:45:00;54.0;;;21.3;;
69917;SDS011;57203;42.672;23.334;2022-11-14T03:46:01;53.5;;;23.0;;
69917;SDS011;57203;42.672;23.334;2022-11-14T03:47:00;59.5;;;21.6;;
69917;SDS011;57203;42.672;23.334;2022-11-14T03:48:01;54.4;;;23.1;;
69917;SDS011;57203;42.672;23.334;2022-11-14T03:49:01;64.5;;;23.6;;
69917;SDS011;57203;42.672;23.334;2022-11-14T03:50:01;69.8;;;23.9;;
69917;SDS011;57203;42.672;23.334;2022-11-14T03:51:01;62.3;;;22.9;;
69917;SDS011;57203;42.672;23.334;2022-11-14T03:52:01;65.5;;;23.7;;
69917;SDS011;57203;42.672;23.334;2022-11-14T03:53:01;65.7;;;25.3;;
69917;SDS011;57203;42.672;23.334;2022-11-14T03:54:02;73.7;;;25.5;;
69917;SDS011;57203;42.672;23.334;2022-11-14T03:55:02;89.0;;;23.7;;
69917;SDS011;57203;42.672;23.334;2022-11-14T03:56:02;75.6;;;25.2;;
69917;SDS011;57203;42.672;23.334;2022-11-14T03:57:02;91.0;;;25.3;;
69917;SDS011;57203;42.672;23.334;2022-11-14T03:58:02;124.9;;;27.4;;
69917;SDS011;57203;42.672;23.334;2022-11-14T03:59:02;103.5;;;25.4;;
69917;SDS011;57203;42.672;23.334;2022-11-14T04:00:03;76.3;;;25.1;;
69917;SDS011;57203;42.672;23.334;2022-11-14T04:01:03;84.6;;;26.8;;
69917;SDS011;57203;42.672;23.334;2022-11-14T04:02:03;84.6;;;26.6;;
69917;SDS011;57203;42.672;23.334;2022-11-14T04:03:03;77.5;;;25.6;;
69917;SDS011;57203;42.672;23.334;2022-11-14T04:04:03;65.5;;;27.8;;
69917;SDS011;57203;42.672;23.334;2022-11-14T04:05:04;89.9;;;26.2;;
69917;SDS011;57203;42.672;23.334;2022-11-14T04:06:04;99.0;;;27.1;;
69917;SDS011;57203;42.672;23.334;2022-11-14T04:07:04;81.7;;;26.9;;
69917;SDS011;57203;42.672;23.334;2022-11-14T04:08:04;80.9;;;27.1;;
69917;SDS011;57203;42.672;23.334;2022-11-14T04:09:04;69.3;;;25.3;;
69917;SDS011;57203;42.672;23.334;2022-11-14T04:10:05;74.7;;;25.1;;
69917;SDS011;57203;42.672;23.334;2022-11-14T04:11:04;73.8;;;25.2;;
69917;SDS011;57203;42.672;23.334;2022-11-14T04:12:05;67.7;;;26.9;;
69917;SDS011;57203;42.672;23.334;2022-11-14T04:13:05;65.3;;;24.1;;
69917;SDS011;57203;42.672;23.334;2022-11-14T04:14:05;65.3;;;24.4;;
69917;SDS011;57203;42.672;23.334;2022-11-14T04:15:05;72.6;;;23.0;;
69917;SDS011;57203;42.672;23.334;2022-11-14T04:16:05;73.0;;;24.0;;
69917;SDS011;57203;42.672;23.334;2022-11-14T04:17:05;66.7;;;19.8;;
69917;SDS011;57203;42.672;23.334;2022-11-14T04:18:05;59.0;;;24.3;;
69917;SDS011;57203;42.672;23.334;2022-11-14T04:19:05;72.3;;;25.5;;
69917;SDS011;57203;42.672;23.334;2022-11-14T04:20:06;74.3;;;25.0;;
69917;SDS011;57203;42.672;23.334;2022-11-14T04:21:06;73.2;;;21.7;;
69917;SDS011;57203;42.672;23.334;2022-11-14T04:22:06;60.1;;;23.2;;
69917;SDS011;57203;42.672;23.334;2022-11-14T04:23:06;74.5;;;23.1;;
69917;SDS011;57203;42.672;23.334;2022-11-14T04:24:06;74.5;;;25.0;;
69917;SDS011;57203;42.672;23.334;2022-11-14T04:25:07;96.3;;;23.6;;
69917;SDS011;57203;42.672;23.334;2022-11-14T04:26:07;87.9;;;25.1;;
69917;SDS011;57203;42.672;23.334;2022-11-14T04:27:07;80.3;;;25.9;;
69917;SDS011;57203;42.672;23.334;2022-11-14T04:28:07;76.4;;;24.5;;
69917;SDS011;57203;42.672;23.334;2022-11-14T04:29:07;84.6;;;25.4;;
69917;SDS011;57203;42.672;23.334;2022-11-14T04:30:08;71.1;;;23.4;;
69917;SDS011;57203;42.672;23.334;2022-11-14T04:31:07;72.0;;;23.6;;
69917;SDS011;57203;42.672;23.334;2022-11-14T04:32:08;71.6;;;24.3;;
69917;SDS011;57203;42.672;23.334;2022-11-14T04:33:08;87.1;;;24.5;;
69917;SDS011;57203;42.672;23.334;2022-11-14T04:34:08;87.1;;;24.0;;
69917;SDS011;57203;42.672;23.334;2022-11-14T04:35:08;106.7;;;26.5;;
69917;SDS011;57203;42.672;23.334;2022-11-14T04:36:09;106.7;;;25.5;;
69917;SDS011;57203;42.672;23.334;2022-11-14T04:37:08;90.3;;;25.0;;
69917;SDS011;57203;42.672;23.334;2022-11-14T04:38:09;67.4;;;24.1;;
69917;SDS011;57203;42.672;23.334;2022-11-14T04:39:09;78.6;;;25.0;;
69917;SDS011;57203;42.672;23.334;2022-11-14T04:40:09;67.1;;;26.7;;
69917;SDS011;57203;42.672;23.334;2022-11-14T04:41:09;71.3;;;24.6;;
69917;SDS011;57203;42.672;23.334;2022-11-14T04:42:09;73.5;;;25.2;;
69917;SDS011;57203;42.672;23.334;2022-11-14T04:43:10;73.5;;;26.6;;
69917;SDS011;57203;42.672;23.334;2022-11-14T04:44:10;70.3;;;26.7;;
69917;SDS011;57203;42.672;23.334;2022-11-14T04:45:10;77.4;;;25.9;;
69917;SDS011;57203;42.672;23.334;2022-11-14T04:47:10;77.4;;;25.6;;
69917;SDS011;57203;42.672;23.334;2022-11-14T04:48:11;63.7;;;26.4;;
69917;SDS011;57203;42.672;23.334;2022-11-14T04:49:11;67.2;;;25.2;;
69917;SDS011;57203;42.672;23.334;2022-11-14T04:50:11;72.0;;;26.2;;
69917;SDS011;57203;42.672;23.334;2022-11-14T04:51:11;75.8;;;26.0;;
69917;SDS011;57203;42.672;23.334;2022-11-14T04:52:11;68.2;;;25.8;;
69917;SDS011;57203;42.672;23.334;2022-11-14T04:53:11;68.2;;;25.1;;
69917;SDS011;57203;42.672;23.334;2022-11-14T04:54:11;61.3;;;25.6;;
69917;SDS011;57203;42.672;23.334;2022-11-14T04:55:12;68.4;;;26.5;;
69917;SDS011;57203;42.672;23.334;2022-11-14T04:56:12;70.8;;;25.0;;
69917;SDS011;57203;42.672;23.334;2022-11-14T04:57:12;67.6;;;27.3;;
69917;SDS011;57203;42.672;23.334;2022-11-14T04:58:12;71.5;;;24.1;;
69917;SDS011;57203;42.672;23.334;2022-11-14T04:59:12;67.0;;;25.5;;
69917;SDS011;57203;42.672;23.334;2022-11-14T05:00:13;72.3;;;25.3;;
69917;SDS011;57203;42.672;23.334;2022-11-14T05:01:13;78.9;;;24.1;;
69917;SDS011;57203;42.672;23.334;2022-11-14T05:02:13;66.4;;;23.1;;
69917;SDS011;57203;42.672;23.334;2022-11-14T05:03:13;66.4;;;24.4;;
69917;SDS011;57203;42.672;23.334;2022-11-14T05:04:13;69.8;;;24.0;;
69917;SDS011;57203;42.672;23.334;2022-11-14T05:05:13;67.5;;;23.1;;
69917;SDS011;57203;42.672;23.334;2022-11-14T05:06:13;56.1;;;23.3;;
69917;SDS011;57203;42.672;23.334;2022-11-14T05:07:14;64.5;;;22.6;;
69917;SDS011;57203;42.672;23.334;2022-11-14T05:08:14;60.3;;;22.3;;
69917;SDS011;57203;42.672;23.334;2022-11-14T05:09:14;63.1;;;23.2;;
69917;SDS011;57203;42.672;23.334;2022-11-14T05:10:14;72.9;;;22.7;;
69917;SDS011;57203;42.672;23.334;2022-11-14T05:11:15;61.3;;;23.1;;
69917;SDS011;57203;42.672;23.334;2022-11-14T05:12:14;66.0;;;22.4;;
69917;SDS011;57203;42.672;23.334;2022-11-14T05:13:14;57.9;;;22.8;;
69917;SDS011;57203;42.672;23.334;2022-11-14T05:14:15;67.9;;;21.8;;
69917;SDS011;57203;42.672;23.334;2022-11-14T05:15:15;64.1;;;23.0;;
69917;SDS011;57203;42.672;23.334;2022-11-14T05:16:15;65.4;;;23.7;;
69917;SDS011;57203;42.672;23.334;2022-11-14T05:17:15;69.5;;;24.7;;
69917;SDS011;57203;42.672;23.334;2022-11-14T05:18:15;69.5;;;22.7;;
69917;SDS011;57203;42.672;23.334;2022-11-14T05:19:15;59.2;;;23.5;;
69917;SDS011;57203;42.672;23.334;2022-11-14T05:20:16;69.8;;;22.1;;
69917;SDS011;57203;42.672;23.334;2022-11-14T05:21:16;59.5;;;24.4;;
69917;SDS011;57203;42.672;23.334;2022-11-14T05:22:16;68.7;;;22.8;;
69917;SDS011;57203;42.672;23.334;2022-11-14T05:23:17;67.9;;;24.6;;
69917;SDS011;57203;42.672;23.334;2022-11-14T05:24:16;77.0;;;25.9;;
69917;SDS011;57203;42.672;23.334;2022-11-14T05:25:16;72.7;;;24.2;;
69917;SDS011;57203;42.672;23.334;2022-11-14T05:26:17;70.9;;;26.5;;
69917;SDS011;57203;42.672;23.334;2022-11-14T05:27:17;76.8;;;24.2;;
69917;SDS011;57203;42.672;23.334;2022-11-14T05:28:17;86.6;;;24.6;;
69917;SDS011;57203;42.672;23.334;2022-11-14T05:29:17;72.9;;;24.0;;
69917;SDS011;57203;42.672;23.334;2022-11-14T05:31:17;80.0;;;23.9;;
69917;SDS011;57203;42.672;23.334;2022-11-14T05:32:18;78.5;;;22.6;;
69917;SDS011;57203;42.672;23.334;2022-11-14T05:33:18;80.8;;;23.9;;
69917;SDS011;57203;42.672;23.334;2022-11-14T05:34:18;72.5;;;23.4;;
69917;SDS011;57203;42.672;23.334;2022-11-14T05:35:18;77.9;;;25.1;;
69917;SDS011;57203;42.672;23.334;2022-11-14T05:36:18;77.9;;;23.4;;
69917;SDS011;57203;42.672;23.334;2022-11-14T05:37:18;71.9;;;23.2;;
69917;SDS011;57203;42.672;23.334;2022-11-14T05:38:18;71.9;;;23.7;;
69917;SDS011;57203;42.672;23.334;2022-11-14T05:39:19;101.3;;;23.5;;
69917;SDS011;57203;42.672;23.334;2022-11-14T05:40:19;101.3;;;24.1;;
69917;SDS011;57203;42.672;23.334;2022-11-14T05:41:19;71.6;;;22.6;;
69917;SDS011;57203;42.672;23.334;2022-11-14T05:42:19;88.5;;;22.7;;
69917;SDS011;57203;42.672;23.334;2022-11-14T05:43:19;67.3;;;24.4;;
69917;SDS011;57203;42.672;23.334;2022-11-14T05:44:19;71.6;;;23.8;;
69917;SDS011;57203;42.672;23.334;2022-11-14T05:45:20;70.3;;;22.9;;
69917;SDS011;57203;42.672;23.334;2022-11-14T05:46:20;71.9;;;23.8;;
69917;SDS011;57203;42.672;23.334;2022-11-14T05:47:20;71.9;;;23.4;;
69917;SDS011;57203;42.672;23.334;2022-11-14T05:48:20;64.3;;;23.9;;
69917;SDS011;57203;42.672;23.334;2022-11-14T05:49:21;72.4;;;21.9;;
69917;SDS011;57203;42.672;23.334;2022-11-14T05:50:20;67.8;;;23.3;;
69917;SDS011;57203;42.672;23.334;2022-11-14T05:51:21;67.8;;;21.3;;
69917;SDS011;57203;42.672;23.334;2022-11-14T05:52:21;65.2;;;20.3;;
69917;SDS011;57203;42.672;23.334;2022-11-14T05:53:21;52.4;;;21.0;;
69917;SDS011;57203;42.672;23.334;2022-11-14T05:54:21;54.0;;;20.4;;
69917;SDS011;57203;42.672;23.334;2022-11-14T05:55:21;62.5;;;20.8;;
69917;SDS011;57203;42.672;23.334;2022-11-14T05:56:22;59.8;;;19.8;;
69917;SDS011;57203;42.672;23.334;2022-11-14T05:57:22;59.8;;;19.9;;
69917;SDS011;57203;42.672;23.334;2022-11-14T05:58:22;62.7;;;20.4;;
69917;SDS011;57203;42.672;23.334;2022-11-14T05:59:22;55.2;;;22.2;;
69917;SDS011;57203;42.672;23.334;2022-11-14T06:00:22;55.1;;;21.1;;
69917;SDS011;57203;42.672;23.334;2022-11-14T06:01:22;57.0;;;21.2;;
69917;SDS011;57203;42.672;23.334;2022-11-14T06:02:23;57.5;;;21.1;;
69917;SDS011;57203;42.672;23.334;2022-11-14T06:03:23;55.6;;;20.2;;
69917;SDS011;57203;42.672;23.334;2022-11-14T06:04:23;55.5;;;19.9;;
69917;SDS011;57203;42.672;23.334;2022-11-14T06:05:23;55.5;;;20.8;;
69917;SDS011;57203;42.672;23.334;2022-11-14T06:06:23;56.7;;;22.1;;